Time;durP1;ratioP1;P1;durP2;ratioP2;P2;SDS_P1;SDS_P2;PMS_P1;PMS_P2;Temp;Humidity;BMP_temperature;BMP_pressure;BME280_temperature;BME280_humidity;BME280_pressure;Samples;Min_cycle;Max_cycle;Signal;HPM_P1;HPM_P2
2022/05/08 00:00:55;;;;;;;6.45;2.88;;;20.00;55.80;;;;;;7789206;22;20429;-72
2022/05/08 00:03:57;;;;;;;5.53;3.00;;;19.90;55.70;;;;;;7789575;22;20019;-72
2022/05/08 00:06:58;;;;;;;4.20;3.13;;;19.90;55.80;;;;;;7788726;22;20441;-72
2022/05/08 00:09:59;;;;;;;4.32;2.88;;;19.90;55.70;;;;;;7790265;22;20012;-72
2022/05/08 00:13:00;;;;;;;5.47;3.08;;;19.90;55.70;;;;;;7789888;22;20046;-73
2022/05/08 00:16:01;;;;;;;3.83;2.97;;;19.90;55.60;;;;;;7763581;22;20019;-73
2022/05/08 00:19:02;;;;;;;5.03;3.00;;;19.90;55.50;;;;;;7788851;22;20030;-72
2022/05/08 00:22:04;;;;;;;5.70;3.22;;;19.90;55.40;;;;;;7789524;22;20422;-72
2022/05/08 00:25:05;;;;;;;3.63;2.88;;;19.90;55.40;;;;;;7788468;22;20011;-72
2022/05/08 00:28:06;;;;;;;6.10;2.60;;;19.90;55.30;;;;;;7788914;22;20087;-72
2022/05/08 00:31:10;;;;;;;8.35;3.33;;;19.90;55.30;;;;;;7788780;22;20022;-72
2022/05/08 00:34:11;;;;;;;5.50;3.65;;;19.90;55.30;;;;;;7789948;22;20027;-72
2022/05/08 00:37:12;;;;;;;5.47;2.97;;;19.90;55.40;;;;;;7768666;22;20024;-72
2022/05/08 00:40:13;;;;;;;4.68;3.08;;;19.90;55.40;;;;;;7790145;22;20094;-72
2022/05/08 00:43:40;;;;;;;10.38;2.88;;;19.90;55.40;;;;;;7789329;22;20453;-72
2022/05/08 00:46:41;;;;;;;3.63;2.47;;;19.80;55.50;;;;;;7790481;22;20448;-72
2022/05/08 00:49:42;;;;;;;9.23;3.40;;;19.80;55.50;;;;;;7788913;22;20016;-72
2022/05/08 00:52:48;;;;;;;6.22;3.53;;;19.80;55.50;;;;;;7762930;22;20008;-72
2022/05/08 00:55:50;;;;;;;4.63;3.20;;;19.80;55.60;;;;;;7789939;22;20315;-72
2022/05/08 00:58:52;;;;;;;6.55;3.20;;;19.80;55.70;;;;;;7789930;22;20031;-72
2022/05/08 01:01:53;;;;;;;3.75;3.20;;;19.70;55.90;;;;;;7788720;22;20098;-72
2022/05/08 01:04:54;;;;;;;6.03;3.50;;;19.60;56.00;;;;;;7789582;22;20026;-72
2022/05/08 01:07:55;;;;;;;5.40;3.35;;;19.50;56.20;;;;;;7788234;22;20023;-72
2022/05/08 01:10:56;;;;;;;8.23;3.13;;;19.50;56.30;;;;;;7762799;22;20012;-72
2022/05/08 01:13:57;;;;;;;5.15;3.25;;;19.40;56.30;;;;;;7762600;22;20016;-72
2022/05/08 01:16:58;;;;;;;4.80;3.20;;;19.40;56.50;;;;;;7789913;22;20318;-72
2022/05/08 01:19:59;;;;;;;4.40;3.35;;;19.40;56.50;;;;;;7788478;22;20035;-72
2022/05/08 01:23:02;;;;;;;5.15;2.90;;;19.30;56.40;;;;;;7774753;22;20038;-72
2022/05/08 01:26:03;;;;;;;6.60;3.10;;;19.30;56.40;;;;;;7763015;22;20429;-72
2022/05/08 01:29:04;;;;;;;6.78;3.55;;;19.30;56.40;;;;;;7788227;22;20070;-72
2022/05/08 01:32:06;;;;;;;4.82;3.42;;;19.30;56.40;;;;;;7762817;22;20042;-73
2022/05/08 01:35:07;;;;;;;6.13;3.38;;;19.30;56.40;;;;;;7789504;22;20016;-72
2022/05/08 01:38:10;;;;;;;7.50;3.53;;;19.30;56.30;;;;;;7775043;22;20019;-72
2022/05/08 01:41:11;;;;;;;4.85;3.03;;;19.30;56.30;;;;;;7787425;22;20023;-72
2022/05/08 01:44:12;;;;;;;9.77;3.58;;;19.30;56.20;;;;;;7775182;22;20039;-72
2022/05/08 01:50:33;;;;;;;7.10;4.28;;;19.20;56.10;;;;;;7824589;22;20334;-72
2022/05/08 01:53:35;;;;;;;6.93;3.35;;;19.20;56.20;;;;;;7798691;22;20023;-72
2022/05/08 01:56:36;;;;;;;4.90;3.28;;;19.20;56.20;;;;;;7824772;22;20064;-71
2022/05/08 01:59:37;;;;;;;5.00;3.22;;;19.20;56.20;;;;;;7825174;22;20023;-72
2022/05/08 02:02:38;;;;;;;8.05;3.40;;;19.20;56.10;;;;;;7826194;22;20373;-72
2022/05/08 02:05:41;;;;;;;5.88;3.67;;;19.10;56.10;;;;;;7798413;22;20022;-72
2022/05/08 02:08:42;;;;;;;6.22;4.00;;;19.00;56.10;;;;;;7825170;22;20454;-72
2022/05/08 02:11:43;;;;;;;7.05;3.47;;;19.00;56.30;;;;;;7798224;22;20011;-72
2022/05/08 02:14:45;;;;;;;7.47;3.97;;;18.90;56.40;;;;;;7773027;22;20015;-72
2022/05/08 02:17:47;;;;;;;7.90;3.75;;;18.90;56.40;;;;;;7798519;22;20082;-71
2022/05/08 02:20:47;;;;;;;6.22;4.00;;;19.00;56.50;;;;;;7798231;22;20023;-71
2022/05/08 02:23:48;;;;;;;9.70;3.72;;;19.00;56.40;;;;;;7797952;22;20038;-71
2022/05/08 02:26:49;;;;;;;5.95;3.65;;;19.00;56.40;;;;;;7798984;22;20076;-71
2022/05/08 02:29:52;;;;;;;5.97;3.78;;;19.00;56.40;;;;;;7825412;22;20015;-71
2022/05/08 02:32:54;;;;;;;4.40;3.22;;;19.00;56.40;;;;;;7797625;22;20015;-71
2022/05/08 02:35:55;;;;;;;11.75;3.35;;;19.10;56.40;;;;;;7798267;22;20026;-71
2022/05/08 02:38:56;;;;;;;5.40;3.25;;;19.10;56.50;;;;;;7798203;22;20011;-72
2022/05/08 02:41:58;;;;;;;11.90;3.38;;;19.10;56.50;;;;;;7797588;22;20015;-72
2022/05/08 02:44:59;;;;;;;5.25;3.70;;;19.10;56.50;;;;;;7798400;22;20081;-71
2022/05/08 02:48:00;;;;;;;12.80;3.42;;;19.10;56.70;;;;;;7798115;22;20023;-71
2022/05/08 02:51:01;;;;;;;6.40;3.53;;;19.10;56.80;;;;;;7824123;22;20097;-71
2022/05/08 02:54:02;;;;;;;5.65;3.85;;;19.10;56.90;;;;;;7823596;22;20087;-71
2022/05/08 03:00:23;;;;;;;4.85;3.03;;;19.00;57.00;;;;;;7797241;22;20077;-71
2022/05/08 03:03:24;;;;;;;5.68;3.63;;;19.00;57.00;;;;;;7824988;22;20019;-71
2022/05/08 03:06:26;;;;;;;9.23;3.83;;;18.90;57.10;;;;;;7825300;22;20054;-71
2022/05/08 03:09:27;;;;;;;5.50;3.95;;;18.90;57.10;;;;;;7798038;22;20098;-71
2022/05/08 03:12:28;;;;;;;6.47;3.45;;;18.80;57.20;;;;;;7782219;22;20019;-71
2022/05/08 03:15:31;;;;;;;7.75;3.78;;;18.80;57.20;;;;;;7771092;22;20046;-71
2022/05/08 03:18:38;;;;;;;16.92;3.83;;;18.70;57.20;;;;;;7798360;22;20417;-71
2022/05/08 03:21:40;;;;;;;5.30;3.45;;;18.70;57.30;;;;;;7825144;22;20023;-71
2022/05/08 03:24:41;;;;;;;5.90;3.80;;;18.60;57.30;;;;;;7770562;22;20027;-71
2022/05/08 03:27:42;;;;;;;6.95;3.95;;;18.60;57.30;;;;;;7825723;22;20084;-71
2022/05/08 03:30:44;;;;;;;6.43;3.80;;;18.60;57.40;;;;;;7827592;22;20349;-71
2022/05/08 03:33:45;;;;;;;8.57;4.50;;;18.50;57.40;;;;;;7762458;22;20014;-71
2022/05/08 03:36:46;;;;;;;5.82;4.07;;;18.50;57.60;;;;;;7775863;22;20019;-71
2022/05/08 03:39:47;;;;;;;6.03;3.70;;;18.40;57.90;;;;;;7788677;22;20033;-71
2022/05/08 03:42:48;;;;;;;6.80;4.35;;;18.40;58.00;;;;;;7762076;22;20012;-71
2022/05/08 03:45:51;;;;;;;6.78;4.10;;;18.40;58.10;;;;;;7788803;22;20360;-72
2022/05/08 03:48:53;;;;;;;8.93;4.75;;;18.40;58.10;;;;;;7800284;22;20015;-72
2022/05/08 03:51:54;;;;;;;6.60;4.30;;;18.50;58.10;;;;;;7776089;22;20012;-72
2022/05/08 03:54:55;;;;;;;5.97;3.75;;;18.40;58.10;;;;;;7787208;22;20015;-72
2022/05/08 03:57:56;;;;;;;7.93;4.55;;;18.40;58.10;;;;;;7763612;22;20099;-72
2022/05/08 04:00:57;;;;;;;6.65;4.13;;;18.50;58.20;;;;;;7790621;22;20039;-72
2022/05/08 04:03:59;;;;;;;7.85;4.18;;;18.40;58.30;;;;;;7790620;22;20084;-72
2022/05/08 04:07:00;;;;;;;5.47;3.90;;;18.40;58.50;;;;;;7763256;22;20081;-72
2022/05/08 04:10:02;;;;;;;5.32;3.40;;;18.30;58.60;;;;;;7763595;22;20344;-71
2022/05/08 04:13:03;;;;;;;6.80;3.95;;;18.20;58.60;;;;;;7790362;22;20437;-72
2022/05/08 04:16:16;;;;;;;9.35;3.72;;;18.20;58.80;;;;;;7790331;22;20004;-72
2022/05/08 04:19:17;;;;;;;8.25;3.88;;;18.20;58.90;;;;;;7788712;22;20015;-72
2022/05/08 04:25:38;;;;;;;6.15;3.47;;;18.10;59.00;;;;;;7823994;22;20023;-72
2022/05/08 04:28:39;;;;;;;6.13;3.70;;;18.00;59.10;;;;;;7824692;22;20457;-71
2022/05/08 04:31:41;;;;;;;6.75;3.85;;;17.90;59.20;;;;;;7825172;22;20011;-71
2022/05/08 04:34:42;;;;;;;7.15;3.70;;;17.90;59.20;;;;;;7772294;22;20107;-72
2022/05/08 04:37:44;;;;;;;10.50;4.18;;;17.90;59.40;;;;;;7823429;22;20018;-70
2022/05/08 04:40:45;;;;;;;7.47;4.10;;;17.80;59.40;;;;;;7781726;22;20104;-71
2022/05/08 04:43:46;;;;;;;8.52;4.00;;;17.80;59.60;;;;;;7796290;22;20011;-71
2022/05/08 04:46:47;;;;;;;8.15;4.00;;;17.70;59.70;;;;;;7796378;22;20022;-70
2022/05/08 04:49:48;;;;;;;7.32;4.05;;;17.60;59.70;;;;;;7793442;22;20283;-72
2022/05/08 04:52:49;;;;;;;11.70;4.03;;;17.60;60.00;;;;;;7770075;22;20485;-71
2022/05/08 04:55:50;;;;;;;6.82;3.80;;;17.50;60.70;;;;;;7797291;22;20011;-70
2022/05/08 04:58:52;;;;;;;6.78;4.07;;;17.50;60.00;;;;;;7823982;22;20107;-72
2022/05/08 05:01:53;;;;;;;8.82;3.78;;;17.50;60.20;;;;;;7771329;22;20015;-71
2022/05/08 05:04:54;;;;;;;7.63;3.80;;;17.40;60.10;;;;;;7823598;22;20015;-71
2022/05/08 05:07:55;;;;;;;6.93;3.58;;;17.50;60.30;;;;;;7822936;22;20022;-72
2022/05/08 05:10:56;;;;;;;8.80;3.45;;;17.40;60.20;;;;;;7824864;22;20007;-71
2022/05/08 05:13:58;;;;;;;6.22;3.83;;;17.40;60.10;;;;;;7794745;22;20058;-70
2022/05/08 05:17:00;;;;;;;13.52;4.10;;;17.40;60.10;;;;;;7823832;22;20026;-71
2022/05/08 05:20:02;;;;;;;6.45;4.40;;;17.40;60.20;;;;;;7797714;22;20023;-71
2022/05/08 05:23:05;;;;;;;10.98;3.92;;;17.40;60.10;;;;;;7796383;22;20352;-71
2022/05/08 05:26:06;;;;;;;8.50;3.97;;;17.50;60.00;;;;;;7823814;22;20015;-71
2022/05/08 05:29:08;;;;;;;5.28;4.10;;;17.60;60.00;;;;;;7823262;22;20007;-71
2022/05/08 05:32:09;;;;;;;6.22;3.90;;;17.60;60.00;;;;;;7822111;22;20011;-71
2022/05/08 05:35:11;;;;;;;5.18;3.92;;;17.60;59.80;;;;;;7792898;22;20019;-71
2022/05/08 05:38:12;;;;;;;9.10;4.10;;;17.70;59.70;;;;;;7821950;22;20106;-72
2022/05/08 05:41:13;;;;;;;8.38;4.25;;;17.80;59.60;;;;;;7820796;22;20034;-72
2022/05/08 05:44:14;;;;;;;8.93;4.78;;;17.90;59.50;;;;;;7796297;22;20054;-72
2022/05/08 05:50:35;;;;;;;10.35;4.43;;;18.10;59.30;;;;;;7823061;22;20105;-72
2022/05/08 05:53:37;;;;;;;6.68;4.53;;;18.20;59.10;;;;;;7796602;22;20019;-72
2022/05/08 05:56:39;;;;;;;6.93;4.03;;;18.30;59.00;;;;;;7823567;22;20444;-71
2022/05/08 05:59:40;;;;;;;6.20;4.15;;;18.40;58.80;;;;;;7797721;22;20445;-72
2022/05/08 06:02:43;;;;;;;8.05;5.20;;;18.40;58.70;;;;;;7795120;22;20016;-72
2022/05/08 06:05:45;;;;;;;10.82;4.35;;;18.50;58.70;;;;;;7795542;22;20022;-70
2022/05/08 06:08:46;;;;;;;8.82;4.80;;;18.50;58.60;;;;;;7785912;22;20021;-71
2022/05/08 06:11:47;;;;;;;8.63;4.03;;;18.60;58.50;;;;;;7741606;22;20015;-71
2022/05/08 13:09:46;;;;;;;3.45;2.75;;;30.60;30.50;;;;;;7559875;23;19920;-66
2022/05/08 13:12:47;;;;;;;4.10;3.08;;;30.10;31.50;;;;;;7692773;23;20016;-68
2022/05/08 13:15:48;;;;;;;6.35;2.80;;;29.70;32.10;;;;;;7723413;23;20004;-69
2022/05/08 13:18:50;;;;;;;6.93;3.50;;;29.40;32.60;;;;;;7724177;23;20311;-68
2022/05/08 13:21:51;;;;;;;6.03;2.95;;;29.20;32.90;;;;;;7750739;23;20020;-69
2022/05/08 13:24:52;;;;;;;3.70;3.22;;;29.10;33.10;;;;;;7750585;23;20406;-69
2022/05/08 13:27:54;;;;;;;3.72;3.10;;;28.90;33.20;;;;;;7724268;23;20016;-68
2022/05/08 13:30:55;;;;;;;3.67;3.08;;;28.90;33.30;;;;;;7750967;23;20012;-68
2022/05/08 13:33:56;;;;;;;4.60;3.40;;;29.30;32.80;;;;;;7723849;23;20019;-69
2022/05/08 13:36:58;;;;;;;3.40;3.10;;;29.50;32.50;;;;;;7723700;23;20019;-68
2022/05/08 13:39:59;;;;;;;5.10;2.50;;;29.40;32.50;;;;;;7724175;23;20008;-68
2022/05/08 13:43:00;;;;;;;4.53;3.47;;;29.30;32.70;;;;;;7697440;23;20013;-68
2022/05/08 13:46:02;;;;;;;3.97;3.25;;;29.10;32.80;;;;;;7723808;23;20019;-68
2022/05/08 13:49:04;;;;;;;4.78;2.92;;;28.90;33.00;;;;;;7750226;23;20009;-68
2022/05/08 13:52:06;;;;;;;3.70;3.30;;;29.50;32.70;;;;;;7724014;23;20023;-68
2022/05/08 13:55:13;;;;;;;4.03;2.85;;;30.30;31.50;;;;;;7750511;23;20023;-68
2022/05/08 13:58:16;;;;;;;3.95;3.05;;;31.10;30.50;;;;;;7724597;23;20016;-69
2022/05/08 14:01:21;;;;;;;3.60;2.80;;;32.00;29.50;;;;;;7724411;23;20108;-68
2022/05/08 14:04:22;;;;;;;3.35;2.78;;;32.30;29.10;;;;;;7724264;23;20103;-69
2022/05/08 14:07:23;;;;;;;4.80;2.75;;;32.40;29.00;;;;;;7698771;23;20020;-69
2022/05/08 14:10:25;;;;;;;2.95;2.72;;;32.70;28.70;;;;;;7723294;23;20303;-69
2022/05/08 14:13:26;;;;;;;5.20;3.35;;;32.60;28.80;;;;;;7698360;23;20012;-70
2022/05/08 14:16:27;;;;;;;3.08;2.70;;;33.30;28.50;;;;;;7711442;23;20351;-69
2022/05/08 14:19:28;;;;;;;3.17;2.67;;;34.50;27.20;;;;;;7712277;23;20032;-68
2022/05/08 14:22:29;;;;;;;3.03;2.70;;;35.20;26.80;;;;;;7710774;23;20040;-68
2022/05/08 14:25:31;;;;;;;2.78;2.25;;;35.20;25.90;;;;;;7711304;23;20095;-68
2022/05/08 14:28:32;;;;;;;2.33;2.00;;;34.50;26.40;;;;;;7686606;23;20434;-69
2022/05/08 14:38:13;;;;;;;3.65;2.05;;;31.50;28.70;;;;;;7711033;23;20020;-70
2022/05/08 14:41:14;;;;;;;3.10;2.80;;;30.70;29.20;;;;;;7709351;23;20094;-70
2022/05/08 14:44:15;;;;;;;8.50;3.40;;;30.20;29.70;;;;;;7701005;23;20082;-70
2022/05/08 14:47:18;;;;;;;3.90;2.85;;;29.80;30.20;;;;;;7730451;23;20042;-69
2022/05/08 14:50:19;;;;;;;3.42;2.88;;;29.50;30.80;;;;;;7709449;23;20028;-69
2022/05/08 14:53:21;;;;;;;3.83;2.78;;;29.20;31.20;;;;;;7709567;23;20279;-69
2022/05/08 14:56:22;;;;;;;4.70;3.30;;;29.00;31.60;;;;;;7710562;23;20088;-69
2022/05/08 14:59:23;;;;;;;2.63;2.42;;;29.00;31.80;;;;;;7710209;23;20070;-70
2022/05/08 15:02:24;;;;;;;7.72;2.17;;;29.00;31.80;;;;;;7710922;23;20020;-68
2022/05/08 15:05:25;;;;;;;2.30;2.10;;;29.20;31.50;;;;;;7709728;23;20271;-69
2022/05/08 15:08:28;;;;;;;2.42;2.15;;;29.20;31.20;;;;;;7710633;23;20020;-69
2022/05/08 15:11:30;;;;;;;2.65;2.13;;;29.20;31.20;;;;;;7708836;23;20027;-69
2022/05/08 15:14:31;;;;;;;2.45;2.00;;;29.10;31.30;;;;;;7709267;23;20016;-69
2022/05/08 15:17:32;;;;;;;3.33;2.78;;;28.90;31.50;;;;;;7711176;23;20092;-69
2022/05/08 15:20:33;;;;;;;2.63;2.42;;;28.70;31.90;;;;;;7710727;23;20095;-69
2022/05/08 15:23:35;;;;;;;2.40;2.20;;;28.60;32.20;;;;;;7713164;23;20296;-70
2022/05/08 15:26:37;;;;;;;3.70;2.08;;;28.60;32.30;;;;;;7714679;23;20074;-70
2022/05/08 15:29:38;;;;;;;2.90;2.13;;;28.90;32.00;;;;;;7711861;23;20017;-70
2022/05/08 15:32:39;;;;;;;4.30;2.17;;;29.20;31.30;;;;;;7711950;23;20035;-71
2022/05/08 15:35:40;;;;;;;6.00;1.98;;;29.40;31.20;;;;;;7686456;23;20035;-70
2022/05/08 15:38:41;;;;;;;3.58;2.25;;;29.40;31.10;;;;;;7711249;23;20368;-69
2022/05/08 15:41:44;;;;;;;2.42;1.90;;;29.70;30.80;;;;;;7711749;23;20020;-70
2022/05/08 15:44:46;;;;;;;2.22;1.98;;;30.10;30.40;;;;;;7686192;23;20048;-72
2022/05/08 15:47:48;;;;;;;3.22;2.25;;;30.60;29.80;;;;;;7711134;23;20091;-70
2022/05/08 15:50:51;;;;;;;3.10;2.20;;;30.70;29.70;;;;;;7713817;23;20028;-71
2022/05/08 15:53:52;;;;;;;3.75;2.22;;;31.00;29.60;;;;;;7713738;23;20028;-70
2022/05/08 15:56:53;;;;;;;2.90;2.25;;;31.60;29.00;;;;;;7713145;23;20036;-71
2022/05/08 15:59:54;;;;;;;35.95;12.20;;;32.40;28.20;;;;;;7713272;23;20013;-71
2022/05/08 16:02:55;;;;;;;3.70;2.28;;;32.40;27.90;;;;;;7713533;23;20083;-71
2022/05/08 16:05:56;;;;;;;5.43;2.65;;;32.00;28.30;;;;;;7711475;23;20013;-70
2022/05/08 16:08:57;;;;;;;3.40;2.08;;;31.70;28.50;;;;;;7686581;23;20013;-70
2022/05/08 16:11:58;;;;;;;2.72;1.90;;;31.40;28.80;;;;;;7737304;23;20485;-70
2022/05/08 16:25:15;;;;;;;2.80;1.90;;;34.10;26.90;;;;;;7497113;23;20055;-71
2022/05/08 16:28:16;;;;;;;5.25;1.90;;;35.20;25.90;;;;;;7498072;23;20631;-71
2022/05/08 16:31:17;;;;;;;2.42;1.80;;;35.60;25.20;;;;;;7519950;23;20034;-70
2022/05/08 16:34:18;;;;;;;2.47;1.75;;;35.80;24.90;;;;;;7521629;23;20011;-70
2022/05/08 16:37:20;;;;;;;7.53;2.25;;;35.50;24.80;;;;;;7521956;23;20085;-70
2022/05/08 16:40:25;;;;;;;3.13;1.75;;;34.80;25.20;;;;;;7522176;23;20379;-70
2022/05/08 16:43:27;;;;;;;2.40;1.50;;;33.80;25.80;;;;;;7521436;23;20278;-70
2022/05/08 16:46:28;;;;;;;2.20;1.80;;;32.80;26.70;;;;;;7497457;23;20054;-70
2022/05/08 16:49:29;;;;;;;2.03;1.60;;;31.80;27.50;;;;;;7522088;23;20025;-70
2022/05/08 16:52:31;;;;;;;3.45;1.67;;;31.00;28.30;;;;;;7497260;23;20495;-71
2022/05/08 16:55:32;;;;;;;1.95;1.60;;;30.30;29.00;;;;;;7681361;23;20023;-71
2022/05/08 16:58:34;;;;;;;2.08;1.70;;;29.70;29.50;;;;;;7707367;23;20020;-71
2022/05/08 17:01:35;;;;;;;1.50;1.40;;;29.20;30.00;;;;;;7706626;23;20444;-71
2022/05/08 17:04:36;;;;;;;2.30;1.60;;;28.80;30.70;;;;;;7707170;23;20423;-71
2022/05/08 17:07:37;;;;;;;1.58;1.48;;;28.30;31.50;;;;;;7718901;23;20012;-72
2022/05/08 17:10:38;;;;;;;1.70;1.50;;;27.80;32.10;;;;;;7716852;23;20020;-70
2022/05/08 17:13:39;;;;;;;1.85;1.48;;;27.40;32.70;;;;;;7743347;23;20009;-70
2022/05/08 17:16:41;;;;;;;2.22;1.38;;;27.10;33.20;;;;;;7745056;23;20019;-70
2022/05/08 17:19:42;;;;;;;2.42;1.52;;;26.80;33.60;;;;;;7718497;23;20426;-70
2022/05/08 17:22:43;;;;;;;2.28;1.40;;;26.60;34.00;;;;;;7717755;23;20040;-70
2022/05/08 17:25:44;;;;;;;1.83;1.73;;;26.40;34.40;;;;;;7717905;23;20138;-69
2022/05/08 17:28:46;;;;;;;2.05;1.65;;;26.30;34.70;;;;;;7692751;23;20016;-68
2022/05/08 17:31:47;;;;;;;2.10;1.80;;;26.30;34.80;;;;;;7641534;23;20371;-69
2022/05/08 17:34:48;;;;;;;2.38;1.60;;;26.20;34.90;;;;;;7704392;23;20017;-69
2022/05/08 17:37:50;;;;;;;1.65;1.50;;;26.20;35.00;;;;;;7705131;23;20039;-69
2022/05/08 17:40:51;;;;;;;2.72;1.80;;;26.10;35.10;;;;;;7705580;23;20026;-69
2022/05/08 17:43:52;;;;;;;1.60;1.50;;;26.10;35.30;;;;;;7705354;23;20013;-68
2022/05/08 17:46:53;;;;;;;1.77;1.30;;;26.00;35.50;;;;;;7703431;23;20009;-69
2022/05/08 17:49:54;;;;;;;2.72;2.05;;;26.00;35.60;;;;;;7705156;23;20032;-69
2022/05/08 17:52:55;;;;;;;2.17;1.42;;;25.90;35.50;;;;;;7704757;23;20021;-69
2022/05/08 17:55:56;;;;;;;1.55;1.35;;;25.90;35.70;;;;;;7703478;23;20012;-68
2022/05/08 17:58:58;;;;;;;15.38;6.32;;;25.80;36.00;;;;;;7705335;23;20078;-68
2022/05/08 18:08:40;;;;;;;2.65;2.15;;;25.60;36.70;;;;;;7741745;23;20027;-67
2022/05/08 18:11:42;;;;;;;6.40;2.55;;;25.50;36.80;;;;;;7679893;23;20021;-67
2022/05/08 18:14:44;;;;;;;4.65;1.80;;;25.40;36.90;;;;;;7704281;23;20091;-67
2022/05/08 18:17:45;;;;;;;2.20;1.98;;;25.40;37.10;;;;;;7704989;23;20070;-66
2022/05/08 18:20:46;;;;;;;2.80;1.95;;;25.30;37.20;;;;;;7703729;23;20024;-66
2022/05/08 18:23:47;;;;;;;2.33;2.13;;;25.30;37.50;;;;;;7705948;23;20384;-67
2022/05/08 18:26:48;;;;;;;3.10;1.90;;;25.20;37.70;;;;;;7707100;23;20351;-68
2022/05/08 18:29:49;;;;;;;4.10;2.20;;;25.20;37.80;;;;;;7705531;23;20320;-68
2022/05/08 18:32:58;;;;;;;2.10;1.70;;;25.10;37.90;;;;;;7705712;23;20175;-68
2022/05/08 18:36:02;;;;;;;2.30;1.83;;;25.10;38.20;;;;;;7679623;23;20016;-69
2022/05/08 18:39:03;;;;;;;3.25;2.03;;;25.00;38.30;;;;;;7680099;23;20078;-68
2022/05/08 18:42:04;;;;;;;2.42;2.10;;;25.00;39.10;;;;;;7706237;23;20024;-67
2022/05/08 18:45:07;;;;;;;4.22;2.17;;;24.90;38.70;;;;;;7704210;23;20012;-67
2022/05/08 18:48:11;;;;;;;7.95;2.50;;;24.90;39.10;;;;;;7706537;23;20024;-68
2022/05/08 18:51:13;;;;;;;3.33;2.47;;;24.70;39.30;;;;;;7679141;23;20020;-70
2022/05/08 18:54:14;;;;;;;5.57;2.25;;;24.70;39.70;;;;;;7743097;23;20344;-69
2022/05/08 18:57:15;;;;;;;4.13;2.85;;;24.60;39.90;;;;;;7725075;23;20103;-70
2022/05/08 19:00:16;;;;;;;3.78;2.80;;;24.50;40.20;;;;;;7742045;23;20023;-71
2022/05/08 19:03:19;;;;;;;5.55;2.67;;;24.50;40.50;;;;;;7719607;23;20019;-70
2022/05/08 19:06:20;;;;;;;4.50;2.80;;;24.40;40.70;;;;;;7718343;23;20057;-70
2022/05/08 19:09:22;;;;;;;3.38;2.35;;;24.40;41.00;;;;;;7718964;23;20415;-70
2022/05/08 19:12:23;;;;;;;3.03;2.00;;;24.30;41.10;;;;;;7693560;23;20020;-71
2022/05/08 19:15:29;;;;;;;26.67;12.25;;;24.20;41.20;;;;;;7680185;23;20012;-72
2022/05/08 19:18:30;;;;;;;8.98;3.83;;;24.20;41.10;;;;;;7706107;23;20555;-71
2022/05/08 19:21:31;;;;;;;24.88;10.73;;;24.10;41.10;;;;;;7696735;23;20020;-72
2022/05/08 19:24:33;;;;;;;19.98;9.75;;;24.00;41.30;;;;;;7708857;23;20016;-71
2022/05/08 19:27:33;;;;;;;6.10;3.45;;;23.90;41.70;;;;;;7718307;23;20016;-70
2022/05/08 19:30:34;;;;;;;3.38;1.80;;;23.80;41.90;;;;;;7704887;23;20023;-72
2022/05/08 19:40:14;;;;;;;19.08;5.20;;;23.50;43.60;;;;;;7745620;23;20079;-71
2022/05/08 19:43:15;;;;;;;20.58;8.80;;;23.40;44.10;;;;;;7718054;23;20355;-71
2022/05/08 19:46:16;;;;;;;3.20;2.45;;;23.20;44.30;;;;;;7745215;23;20091;-71
2022/05/08 19:49:17;;;;;;;4.63;2.50;;;23.10;44.80;;;;;;7745726;23;20937;-71
2022/05/08 19:52:22;;;;;;;4.50;2.40;;;23.00;45.30;;;;;;7745294;23;20024;-71
2022/05/08 19:55:23;;;;;;;6.82;2.33;;;22.90;45.80;;;;;;7717494;23;20016;-71
2022/05/08 19:58:24;;;;;;;5.35;2.28;;;22.80;46.10;;;;;;7745328;23;20023;-70
2022/05/08 20:01:25;;;;;;;2.58;2.10;;;22.70;46.30;;;;;;7742859;23;20042;-71
2022/05/08 20:04:26;;;;;;;6.50;3.58;;;22.60;46.70;;;;;;7744835;23;20323;-70
2022/05/08 20:07:27;;;;;;;5.60;3.28;;;22.50;47.00;;;;;;7718754;23;20012;-71
2022/05/08 20:10:29;;;;;;;3.67;2.50;;;22.40;47.20;;;;;;7745599;22;20475;-71
2022/05/08 20:13:30;;;;;;;11.25;2.95;;;22.40;47.50;;;;;;7693232;23;20027;-70
2022/05/08 20:16:31;;;;;;;3.60;2.40;;;22.30;47.80;;;;;;7680679;23;20027;-71
2022/05/08 20:19:33;;;;;;;13.63;7.07;;;22.20;48.40;;;;;;7706306;23;20043;-72
2022/05/08 20:22:35;;;;;;;7.53;4.57;;;22.10;48.60;;;;;;7706907;23;20431;-71
2022/05/08 20:25:36;;;;;;;6.55;3.72;;;22.00;48.90;;;;;;7717167;23;20091;-70
2022/05/08 20:28:37;;;;;;;7.35;2.80;;;21.90;49.10;;;;;;7717858;23;20016;-74
2022/05/08 20:31:38;;;;;;;4.82;3.33;;;21.80;49.40;;;;;;7681735;23;20028;-72
2022/05/08 20:34:39;;;;;;;8.50;3.42;;;21.80;49.50;;;;;;7708912;23;20040;-71
2022/05/08 20:37:40;;;;;;;4.40;2.30;;;21.70;49.60;;;;;;7686058;23;20039;-72
2022/05/08 20:40:41;;;;;;;4.35;2.15;;;21.60;49.60;;;;;;7745306;23;20016;-71
2022/05/08 20:43:43;;;;;;;4.47;2.17;;;21.60;49.90;;;;;;7714609;23;20431;-71
2022/05/08 20:46:48;;;;;;;2.33;1.48;;;21.50;49.90;;;;;;7708278;23;20023;-72
2022/05/08 20:49:50;;;;;;;2.88;1.77;;;21.50;50.20;;;;;;7709731;23;20008;-72
2022/05/08 20:52:56;;;;;;;5.95;2.15;;;21.40;50.50;;;;;;7711010;23;20106;-72
2022/05/08 20:55:57;;;;;;;4.55;1.98;;;21.30;50.60;;;;;;7661900;23;20063;-71
2022/05/08 20:58:59;;;;;;;3.22;1.98;;;21.30;50.70;;;;;;7683611;23;20096;-71
2022/05/08 21:02:01;;;;;;;5.53;2.25;;;21.20;50.90;;;;;;7720046;23;20306;-71
2022/05/08 21:08:24;;;;;;;1.65;1.48;;;21.20;51.20;;;;;;7708718;23;20024;-70
2022/05/08 21:11:26;;;;;;;1.77;1.55;;;21.10;51.40;;;;;;7706836;23;20020;-71
2022/05/08 21:14:27;;;;;;;3.47;2.58;;;21.00;51.50;;;;;;7707715;23;20024;-72
2022/05/08 21:17:28;;;;;;;2.67;1.83;;;21.00;51.70;;;;;;7709844;23;20013;-72
2022/05/08 21:20:29;;;;;;;1.95;1.55;;;20.90;52.00;;;;;;7709058;23;20044;-71
2022/05/08 21:23:30;;;;;;;3.33;2.17;;;20.80;52.00;;;;;;7709529;23;20018;-71
2022/05/08 21:26:34;;;;;;;2.50;2.10;;;20.80;52.00;;;;;;7682501;23;20091;-71
2022/05/08 21:29:35;;;;;;;2.92;1.90;;;20.80;52.10;;;;;;7708260;23;20024;-71
2022/05/08 21:32:38;;;;;;;4.35;2.00;;;20.80;52.30;;;;;;7709059;23;20363;-71
2022/05/08 21:35:43;;;;;;;3.33;1.92;;;20.80;52.30;;;;;;7684714;23;20157;-71
2022/05/08 21:38:44;;;;;;;1.92;1.63;;;20.70;52.40;;;;;;7708077;23;20420;-72
2022/05/08 21:41:45;;;;;;;3.80;1.80;;;20.70;52.40;;;;;;7709918;23;20096;-72
2022/05/08 21:44:46;;;;;;;3.30;2.10;;;20.70;52.60;;;;;;7708390;23;20016;-72
2022/05/08 21:47:48;;;;;;;3.60;1.83;;;20.60;52.70;;;;;;7709144;23;20024;-72
2022/05/08 21:50:49;;;;;;;2.42;2.00;;;20.60;52.70;;;;;;7708075;23;20023;-71
2022/05/08 21:53:49;;;;;;;8.75;3.42;;;20.60;52.90;;;;;;7720061;23;20013;-70
2022/05/08 21:56:50;;;;;;;4.47;1.70;;;20.60;53.00;;;;;;7708270;23;20016;-71
2022/05/08 21:59:51;;;;;;;1.88;1.55;;;20.50;53.10;;;;;;7683996;23;20024;-72
2022/05/08 22:02:52;;;;;;;6.60;1.85;;;20.50;53.10;;;;;;7710871;23;20044;-72
2022/05/08 22:05:58;;;;;;;2.88;2.00;;;20.50;53.20;;;;;;7711738;23;20016;-71
2022/05/08 22:08:59;;;;;;;4.55;1.90;;;20.50;53.20;;;;;;7713535;23;20154;-71
2022/05/08 22:12:00;;;;;;;1.98;1.77;;;20.50;53.30;;;;;;7721749;23;20365;-70
2022/05/08 22:15:01;;;;;;;4.72;2.08;;;20.40;53.30;;;;;;7724729;23;20403;-72
2022/05/08 22:19:16;;;;;;;6.20;2.45;;;20.40;53.30;;;;;;7724281;23;20020;-71
2022/05/08 22:21:24;;;;;;;3.15;1.65;;;20.40;53.40;;;;;;7749756;23;20095;-71
2022/05/08 22:24:25;;;;;;;2.85;1.70;;;20.40;53.40;;;;;;7751182;23;20343;-71
2022/05/08 22:27:26;;;;;;;3.38;2.13;;;20.40;53.60;;;;;;7723851;23;20016;-72
2022/05/08 22:30:27;;;;;;;3.17;2.00;;;20.30;53.50;;;;;;7724095;23;20016;-71
2022/05/08 22:33:28;;;;;;;2.70;1.73;;;20.30;53.70;;;;;;7696516;23;20400;-70
2022/05/08 22:36:30;;;;;;;2.72;1.80;;;20.30;53.80;;;;;;7721809;23;20299;-72
2022/05/08 22:39:31;;;;;;;2.97;1.92;;;20.30;53.80;;;;;;7722817;23;20366;-72
2022/05/08 22:42:32;;;;;;;2.33;2.00;;;20.30;54.00;;;;;;7722964;23;20024;-70
2022/05/08 22:45:38;;;;;;;4.45;1.90;;;20.20;54.00;;;;;;7698250;23;20365;-70
2022/05/08 22:48:39;;;;;;;4.53;2.20;;;20.20;54.20;;;;;;7749769;23;20074;-70
2022/05/08 22:51:39;;;;;;;2.35;1.90;;;20.20;54.30;;;;;;7697793;23;20020;-71
2022/05/08 22:54:40;;;;;;;3.50;2.17;;;20.10;54.40;;;;;;7723515;23;20020;-70
2022/05/08 22:57:41;;;;;;;4.45;2.13;;;20.10;54.60;;;;;;7748053;23;20067;-70
2022/05/08 23:00:46;;;;;;;5.25;1.95;;;20.10;54.90;;;;;;7722058;23;20023;-70
2022/05/08 23:03:46;;;;;;;12.35;2.20;;;20.00;55.00;;;;;;7698464;23;20016;-70
2022/05/08 23:06:47;;;;;;;5.43;2.83;;;20.00;55.20;;;;;;7724171;23;20016;-70
2022/05/08 23:09:53;;;;;;;3.40;2.17;;;20.00;55.30;;;;;;7750912;23;20012;-70
2022/05/08 23:12:54;;;;;;;2.83;1.85;;;19.90;55.40;;;;;;7699573;23;20380;-70
2022/05/08 23:15:55;;;;;;;15.25;4.80;;;19.90;55.50;;;;;;7676337;23;20024;-70
2022/05/08 23:18:56;;;;;;;7.85;2.67;;;19.80;55.40;;;;;;7686783;23;20013;-70
2022/05/08 23:21:57;;;;;;;7.43;1.90;;;19.80;55.50;;;;;;7713279;23;20078;-70
2022/05/08 23:24:58;;;;;;;3.22;1.95;;;19.80;55.50;;;;;;7713672;23;20017;-70